sensor_id;sensor_type;location;lat;lon;timestamp;P1;durP1;ratioP1;P2;durP2;ratioP2
23058;SDS011;30585;51.502;7.218;2023-10-08T00:00:45;4.15;;;1.80;;
23058;SDS011;30585;51.502;7.218;2023-10-08T00:03:16;7.07;;;2.15;;
23058;SDS011;30585;51.502;7.218;2023-10-08T00:05:45;3.88;;;1.70;;
23058;SDS011;30585;51.502;7.218;2023-10-08T00:08:13;6.18;;;2.30;;
23058;SDS011;30585;51.502;7.218;2023-10-08T00:10:44;4.95;;;2.05;;
23058;SDS011;30585;51.502;7.218;2023-10-08T00:13:13;9.32;;;2.25;;
23058;SDS011;30585;51.502;7.218;2023-10-08T00:15:43;4.40;;;2.20;;
23058;SDS011;30585;51.502;7.218;2023-10-08T00:18:19;5.43;;;1.95;;
23058;SDS011;30585;51.502;7.218;2023-10-08T00:20:49;3.75;;;2.03;;
23058;SDS011;30585;51.502;7.218;2023-10-08T00:23:24;3.10;;;1.67;;
23058;SDS011;30585;51.502;7.218;2023-10-08T00:25:52;6.60;;;1.88;;
23058;SDS011;30585;51.502;7.218;2023-10-08T00:28:22;5.25;;;1.58;;
23058;SDS011;30585;51.502;7.218;2023-10-08T00:30:51;9.07;;;1.90;;
23058;SDS011;30585;51.502;7.218;2023-10-08T00:33:20;2.85;;;1.90;;
23058;SDS011;30585;51.502;7.218;2023-10-08T00:35:48;6.65;;;1.88;;
23058;SDS011;30585;51.502;7.218;2023-10-08T00:38:16;2.83;;;1.52;;
23058;SDS011;30585;51.502;7.218;2023-10-08T00:40:47;4.18;;;2.00;;
23058;SDS011;30585;51.502;7.218;2023-10-08T00:43:32;6.18;;;2.45;;
23058;SDS011;30585;51.502;7.218;2023-10-08T00:46:01;2.70;;;1.90;;
23058;SDS011;30585;51.502;7.218;2023-10-08T00:48:44;7.13;;;1.77;;
23058;SDS011;30585;51.502;7.218;2023-10-08T00:51:12;8.27;;;2.50;;
23058;SDS011;30585;51.502;7.218;2023-10-08T00:53:52;4.78;;;1.58;;
23058;SDS011;30585;51.502;7.218;2023-10-08T00:56:25;3.67;;;1.50;;
23058;SDS011;30585;51.502;7.218;2023-10-08T00:59:13;4.72;;;2.00;;
23058;SDS011;30585;51.502;7.218;2023-10-08T01:01:42;5.65;;;2.00;;
23058;SDS011;30585;51.502;7.218;2023-10-08T01:04:17;5.55;;;1.73;;
23058;SDS011;30585;51.502;7.218;2023-10-08T01:06:49;2.95;;;1.80;;
23058;SDS011;30585;51.502;7.218;2023-10-08T01:09:21;6.05;;;1.77;;
23058;SDS011;30585;51.502;7.218;2023-10-08T01:14:51;3.50;;;2.00;;
23058;SDS011;30585;51.502;7.218;2023-10-08T01:17:21;4.63;;;1.92;;
23058;SDS011;30585;51.502;7.218;2023-10-08T01:19:52;3.88;;;1.77;;
23058;SDS011;30585;51.502;7.218;2023-10-08T01:22:24;6.13;;;1.67;;
23058;SDS011;30585;51.502;7.218;2023-10-08T01:24:55;2.53;;;1.73;;
23058;SDS011;30585;51.502;7.218;2023-10-08T01:27:24;3.78;;;2.00;;
23058;SDS011;30585;51.502;7.218;2023-10-08T01:29:54;3.08;;;2.15;;
23058;SDS011;30585;51.502;7.218;2023-10-08T01:32:26;4.40;;;1.77;;
23058;SDS011;30585;51.502;7.218;2023-10-08T01:34:54;4.78;;;1.70;;
23058;SDS011;30585;51.502;7.218;2023-10-08T01:37:22;4.13;;;1.80;;
23058;SDS011;30585;51.502;7.218;2023-10-08T01:39:51;3.55;;;1.75;;
23058;SDS011;30585;51.502;7.218;2023-10-08T01:42:19;2.90;;;1.65;;
23058;SDS011;30585;51.502;7.218;2023-10-08T01:44:49;3.72;;;1.95;;
23058;SDS011;30585;51.502;7.218;2023-10-08T01:47:21;6.20;;;2.15;;
23058;SDS011;30585;51.502;7.218;2023-10-08T01:49:51;3.58;;;1.70;;
23058;SDS011;30585;51.502;7.218;2023-10-08T01:52:31;4.70;;;2.03;;
23058;SDS011;30585;51.502;7.218;2023-10-08T01:55:02;3.85;;;2.30;;
23058;SDS011;30585;51.502;7.218;2023-10-08T01:57:30;3.75;;;1.95;;
23058;SDS011;30585;51.502;7.218;2023-10-08T01:59:58;4.68;;;2.22;;
23058;SDS011;30585;51.502;7.218;2023-10-08T02:02:26;4.85;;;2.50;;
23058;SDS011;30585;51.502;7.218;2023-10-08T02:04:54;5.47;;;2.33;;
23058;SDS011;30585;51.502;7.218;2023-10-08T02:07:21;3.35;;;1.77;;
23058;SDS011;30585;51.502;7.218;2023-10-08T02:09:49;5.22;;;2.15;;
23058;SDS011;30585;51.502;7.218;2023-10-08T02:12:18;5.65;;;2.10;;
23058;SDS011;30585;51.502;7.218;2023-10-08T02:14:46;3.47;;;1.55;;
23058;SDS011;30585;51.502;7.218;2023-10-08T02:17:15;5.00;;;2.72;;
23058;SDS011;30585;51.502;7.218;2023-10-08T02:19:43;6.60;;;2.00;;
23058;SDS011;30585;51.502;7.218;2023-10-08T02:22:11;7.30;;;2.33;;
23058;SDS011;30585;51.502;7.218;2023-10-08T02:24:39;4.53;;;2.00;;
23058;SDS011;30585;51.502;7.218;2023-10-08T02:27:09;4.30;;;2.03;;
23058;SDS011;30585;51.502;7.218;2023-10-08T02:29:38;4.88;;;2.00;;
23058;SDS011;30585;51.502;7.218;2023-10-08T02:32:06;5.00;;;1.92;;
23058;SDS011;30585;51.502;7.218;2023-10-08T02:34:34;8.30;;;2.47;;
23058;SDS011;30585;51.502;7.218;2023-10-08T02:37:02;3.47;;;2.20;;
23058;SDS011;30585;51.502;7.218;2023-10-08T02:39:31;6.38;;;1.83;;
23058;SDS011;30585;51.502;7.218;2023-10-08T02:41:59;3.97;;;2.25;;
23058;SDS011;30585;51.502;7.218;2023-10-08T02:44:27;4.85;;;2.08;;
23058;SDS011;30585;51.502;7.218;2023-10-08T02:46:56;7.03;;;2.42;;
23058;SDS011;30585;51.502;7.218;2023-10-08T02:49:24;5.35;;;2.10;;
23058;SDS011;30585;51.502;7.218;2023-10-08T02:51:52;4.30;;;2.22;;
23058;SDS011;30585;51.502;7.218;2023-10-08T02:54:22;6.82;;;2.13;;
23058;SDS011;30585;51.502;7.218;2023-10-08T02:56:58;3.67;;;1.77;;
23058;SDS011;30585;51.502;7.218;2023-10-08T02:59:29;7.00;;;2.63;;
23058;SDS011;30585;51.502;7.218;2023-10-08T03:04:46;4.70;;;2.05;;
23058;SDS011;30585;51.502;7.218;2023-10-08T03:07:15;4.97;;;2.17;;
23058;SDS011;30585;51.502;7.218;2023-10-08T03:09:49;5.40;;;2.53;;
23058;SDS011;30585;51.502;7.218;2023-10-08T03:12:17;3.90;;;2.00;;
23058;SDS011;30585;51.502;7.218;2023-10-08T03:14:45;4.07;;;2.08;;
23058;SDS011;30585;51.502;7.218;2023-10-08T03:17:28;7.13;;;2.38;;
23058;SDS011;30585;51.502;7.218;2023-10-08T03:19:56;6.82;;;2.78;;
23058;SDS011;30585;51.502;7.218;2023-10-08T03:22:45;6.38;;;1.85;;
23058;SDS011;30585;51.502;7.218;2023-10-08T03:25:13;4.63;;;2.13;;
23058;SDS011;30585;51.502;7.218;2023-10-08T03:27:43;5.10;;;1.80;;
23058;SDS011;30585;51.502;7.218;2023-10-08T03:30:11;3.30;;;2.42;;
23058;SDS011;30585;51.502;7.218;2023-10-08T03:32:42;4.40;;;2.58;;
23058;SDS011;30585;51.502;7.218;2023-10-08T03:35:12;3.72;;;1.90;;
23058;SDS011;30585;51.502;7.218;2023-10-08T03:37:39;5.40;;;2.03;;
23058;SDS011;30585;51.502;7.218;2023-10-08T03:40:12;6.22;;;2.20;;
23058;SDS011;30585;51.502;7.218;2023-10-08T03:42:58;3.90;;;2.15;;
23058;SDS011;30585;51.502;7.218;2023-10-08T03:45:26;5.05;;;2.20;;
23058;SDS011;30585;51.502;7.218;2023-10-08T03:48:12;6.35;;;2.30;;
23058;SDS011;30585;51.502;7.218;2023-10-08T03:50:42;5.32;;;2.10;;
23058;SDS011;30585;51.502;7.218;2023-10-08T03:53:10;5.65;;;2.17;;
23058;SDS011;30585;51.502;7.218;2023-10-08T03:55:38;5.00;;;2.47;;
23058;SDS011;30585;51.502;7.218;2023-10-08T03:58:07;5.13;;;1.95;;
23058;SDS011;30585;51.502;7.218;2023-10-08T04:00:45;5.10;;;2.40;;
23058;SDS011;30585;51.502;7.218;2023-10-08T04:03:15;5.40;;;2.03;;
23058;SDS011;30585;51.502;7.218;2023-10-08T04:05:54;7.03;;;2.28;;
23058;SDS011;30585;51.502;7.218;2023-10-08T04:08:41;5.55;;;2.50;;
23058;SDS011;30585;51.502;7.218;2023-10-08T04:11:09;5.97;;;2.38;;
23058;SDS011;30585;51.502;7.218;2023-10-08T04:13:55;7.85;;;2.20;;
23058;SDS011;30585;51.502;7.218;2023-10-08T04:16:26;5.68;;;2.22;;
23058;SDS011;30585;51.502;7.218;2023-10-08T04:18:55;4.47;;;1.88;;
23058;SDS011;30585;51.502;7.218;2023-10-08T04:21:23;4.97;;;2.35;;
23058;SDS011;30585;51.502;7.218;2023-10-08T04:23:54;5.93;;;2.42;;
23058;SDS011;30585;51.502;7.218;2023-10-08T04:26:24;10.20;;;2.10;;
23058;SDS011;30585;51.502;7.218;2023-10-08T04:28:52;4.50;;;2.53;;
23058;SDS011;30585;51.502;7.218;2023-10-08T04:31:24;4.28;;;2.10;;
23058;SDS011;30585;51.502;7.218;2023-10-08T04:33:56;3.10;;;1.70;;
23058;SDS011;30585;51.502;7.218;2023-10-08T04:36:27;5.80;;;2.67;;
23058;SDS011;30585;51.502;7.218;2023-10-08T04:38:55;6.13;;;2.33;;
23058;SDS011;30585;51.502;7.218;2023-10-08T04:41:28;8.63;;;2.35;;
23058;SDS011;30585;51.502;7.218;2023-10-08T04:43:56;7.20;;;2.67;;
23058;SDS011;30585;51.502;7.218;2023-10-08T04:46:27;3.63;;;1.90;;
23058;SDS011;30585;51.502;7.218;2023-10-08T04:49:15;5.63;;;2.45;;
23058;SDS011;30585;51.502;7.218;2023-10-08T04:51:56;4.25;;;1.65;;
23058;SDS011;30585;51.502;7.218;2023-10-08T04:54:25;9.35;;;2.58;;
23058;SDS011;30585;51.502;7.218;2023-10-08T04:56:57;10.25;;;2.13;;
23058;SDS011;30585;51.502;7.218;2023-10-08T04:59:26;5.63;;;2.08;;
23058;SDS011;30585;51.502;7.218;2023-10-08T05:01:59;5.13;;;1.90;;
23058;SDS011;30585;51.502;7.218;2023-10-08T05:04:49;6.78;;;2.63;;
23058;SDS011;30585;51.502;7.218;2023-10-08T05:07:34;8.35;;;2.72;;
23058;SDS011;30585;51.502;7.218;2023-10-08T05:10:26;4.85;;;2.20;;
23058;SDS011;30585;51.502;7.218;2023-10-08T05:13:27;4.72;;;1.70;;
23058;SDS011;30585;51.502;7.218;2023-10-08T05:16:01;5.47;;;1.58;;
23058;SDS011;30585;51.502;7.218;2023-10-08T05:18:56;5.88;;;2.33;;
23058;SDS011;30585;51.502;7.218;2023-10-08T05:21:52;5.78;;;2.00;;
23058;SDS011;30585;51.502;7.218;2023-10-08T05:24:44;5.38;;;1.90;;
23058;SDS011;30585;51.502;7.218;2023-10-08T05:27:32;5.82;;;2.58;;
23058;SDS011;30585;51.502;7.218;2023-10-08T05:30:24;4.35;;;2.00;;
23058;SDS011;30585;51.502;7.218;2023-10-08T05:32:55;5.55;;;2.40;;
23058;SDS011;30585;51.502;7.218;2023-10-08T05:35:46;4.45;;;2.25;;
23058;SDS011;30585;51.502;7.218;2023-10-08T05:38:22;7.88;;;2.42;;
23058;SDS011;30585;51.502;7.218;2023-10-08T05:40:50;5.28;;;2.17;;
23058;SDS011;30585;51.502;7.218;2023-10-08T05:43:39;8.77;;;2.72;;
23058;SDS011;30585;51.502;7.218;2023-10-08T05:46:29;4.15;;;2.42;;
23058;SDS011;30585;51.502;7.218;2023-10-08T05:49:13;4.40;;;2.00;;
23058;SDS011;30585;51.502;7.218;2023-10-08T05:52:04;4.90;;;2.20;;
23058;SDS011;30585;51.502;7.218;2023-10-08T05:54:55;4.00;;;1.80;;
23058;SDS011;30585;51.502;7.218;2023-10-08T05:57:52;5.07;;;2.17;;
23058;SDS011;30585;51.502;7.218;2023-10-08T06:00:31;6.43;;;2.47;;
23058;SDS011;30585;51.502;7.218;2023-10-08T06:03:30;6.10;;;2.17;;
23058;SDS011;30585;51.502;7.218;2023-10-08T06:06:12;6.18;;;2.00;;
23058;SDS011;30585;51.502;7.218;2023-10-08T06:08:52;9.77;;;2.35;;
23058;SDS011;30585;51.502;7.218;2023-10-08T06:11:34;11.82;;;2.35;;
23058;SDS011;30585;51.502;7.218;2023-10-08T06:14:11;5.47;;;2.38;;
23058;SDS011;30585;51.502;7.218;2023-10-08T06:16:54;5.00;;;2.13;;
23058;SDS011;30585;51.502;7.218;2023-10-08T06:19:39;11.05;;;2.35;;
23058;SDS011;30585;51.502;7.218;2023-10-08T06:22:07;6.35;;;2.22;;
23058;SDS011;30585;51.502;7.218;2023-10-08T06:24:34;5.20;;;2.30;;
23058;SDS011;30585;51.502;7.218;2023-10-08T06:27:06;7.18;;;2.30;;
23058;SDS011;30585;51.502;7.218;2023-10-08T06:29:35;6.88;;;1.83;;
23058;SDS011;30585;51.502;7.218;2023-10-08T06:32:10;3.88;;;2.08;;
23058;SDS011;30585;51.502;7.218;2023-10-08T06:34:38;5.13;;;2.05;;
23058;SDS011;30585;51.502;7.218;2023-10-08T06:37:06;4.47;;;2.03;;
23058;SDS011;30585;51.502;7.218;2023-10-08T06:39:34;6.88;;;2.35;;
23058;SDS011;30585;51.502;7.218;2023-10-08T06:42:15;4.63;;;1.88;;
23058;SDS011;30585;51.502;7.218;2023-10-08T06:44:44;5.30;;;1.98;;
23058;SDS011;30585;51.502;7.218;2023-10-08T06:47:12;8.82;;;2.75;;
23058;SDS011;30585;51.502;7.218;2023-10-08T06:49:42;5.22;;;2.55;;
23058;SDS011;30585;51.502;7.218;2023-10-08T06:52:10;3.33;;;1.92;;
23058;SDS011;30585;51.502;7.218;2023-10-08T06:54:39;5.32;;;2.03;;
23058;SDS011;30585;51.502;7.218;2023-10-08T06:57:07;7.13;;;2.70;;
23058;SDS011;30585;51.502;7.218;2023-10-08T06:59:41;4.32;;;1.85;;
23058;SDS011;30585;51.502;7.218;2023-10-08T07:02:09;7.43;;;2.15;;
23058;SDS011;30585;51.502;7.218;2023-10-08T07:04:38;7.65;;;2.42;;
23058;SDS011;30585;51.502;7.218;2023-10-08T07:07:08;4.70;;;2.88;;
23058;SDS011;30585;51.502;7.218;2023-10-08T07:09:37;5.22;;;2.28;;
23058;SDS011;30585;51.502;7.218;2023-10-08T07:12:05;5.15;;;2.30;;
23058;SDS011;30585;51.502;7.218;2023-10-08T07:14:41;5.43;;;2.70;;
23058;SDS011;30585;51.502;7.218;2023-10-08T07:17:10;6.75;;;2.60;;
23058;SDS011;30585;51.502;7.218;2023-10-08T07:19:47;5.32;;;2.35;;
23058;SDS011;30585;51.502;7.218;2023-10-08T07:22:17;6.47;;;3.30;;
23058;SDS011;30585;51.502;7.218;2023-10-08T07:24:49;9.75;;;3.17;;
23058;SDS011;30585;51.502;7.218;2023-10-08T07:27:18;9.43;;;3.25;;
23058;SDS011;30585;51.502;7.218;2023-10-08T07:29:50;5.20;;;2.50;;
23058;SDS011;30585;51.502;7.218;2023-10-08T07:32:23;11.43;;;2.60;;
23058;SDS011;30585;51.502;7.218;2023-10-08T07:34:52;2.95;;;1.77;;
23058;SDS011;30585;51.502;7.218;2023-10-08T07:37:24;4.88;;;1.85;;
23058;SDS011;30585;51.502;7.218;2023-10-08T07:39:52;1.98;;;1.55;;
23058;SDS011;30585;51.502;7.218;2023-10-08T07:42:21;1.70;;;1.60;;
23058;SDS011;30585;51.502;7.218;2023-10-08T07:44:50;5.93;;;1.40;;
23058;SDS011;30585;51.502;7.218;2023-10-08T07:47:21;4.32;;;1.52;;
23058;SDS011;30585;51.502;7.218;2023-10-08T07:49:49;4.70;;;1.70;;
23058;SDS011;30585;51.502;7.218;2023-10-08T07:52:18;8.55;;;1.42;;
23058;SDS011;30585;51.502;7.218;2023-10-08T07:54:47;2.80;;;1.60;;
23058;SDS011;30585;51.502;7.218;2023-10-08T07:57:15;4.13;;;1.48;;
23058;SDS011;30585;51.502;7.218;2023-10-08T07:59:46;2.78;;;1.70;;
23058;SDS011;30585;51.502;7.218;2023-10-08T08:02:16;2.92;;;1.20;;
23058;SDS011;30585;51.502;7.218;2023-10-08T08:04:49;1.60;;;1.35;;
23058;SDS011;30585;51.502;7.218;2023-10-08T08:07:19;2.00;;;1.80;;
23058;SDS011;30585;51.502;7.218;2023-10-08T08:09:49;2.78;;;1.63;;
23058;SDS011;30585;51.502;7.218;2023-10-08T08:12:19;2.90;;;2.03;;
23058;SDS011;30585;51.502;7.218;2023-10-08T08:14:49;2.63;;;1.75;;
23058;SDS011;30585;51.502;7.218;2023-10-08T08:17:19;2.58;;;1.90;;
23058;SDS011;30585;51.502;7.218;2023-10-08T08:19:49;3.20;;;2.17;;
23058;SDS011;30585;51.502;7.218;2023-10-08T08:22:19;4.63;;;2.42;;
23058;SDS011;30585;51.502;7.218;2023-10-08T08:24:49;4.18;;;2.15;;
23058;SDS011;30585;51.502;7.218;2023-10-08T08:27:23;11.60;;;3.42;;
23058;SDS011;30585;51.502;7.218;2023-10-08T08:29:53;10.23;;;3.97;;
23058;SDS011;30585;51.502;7.218;2023-10-08T08:32:23;7.03;;;4.00;;
23058;SDS011;30585;51.502;7.218;2023-10-08T08:34:51;8.98;;;4.63;;
23058;SDS011;30585;51.502;7.218;2023-10-08T08:37:19;7.90;;;4.15;;
23058;SDS011;30585;51.502;7.218;2023-10-08T08:39:48;4.90;;;2.60;;
23058;SDS011;30585;51.502;7.218;2023-10-08T08:42:17;6.80;;;2.38;;
23058;SDS011;30585;51.502;7.218;2023-10-08T08:44:49;4.68;;;1.95;;
23058;SDS011;30585;51.502;7.218;2023-10-08T08:47:19;2.75;;;1.88;;
23058;SDS011;30585;51.502;7.218;2023-10-08T08:49:52;4.03;;;2.75;;
23058;SDS011;30585;51.502;7.218;2023-10-08T08:52:23;4.50;;;2.45;;
23058;SDS011;30585;51.502;7.218;2023-10-08T08:54:50;5.07;;;2.95;;
23058;SDS011;30585;51.502;7.218;2023-10-08T08:57:18;5.30;;;2.60;;
23058;SDS011;30585;51.502;7.218;2023-10-08T08:59:48;5.35;;;3.25;;
23058;SDS011;30585;51.502;7.218;2023-10-08T09:02:20;8.75;;;3.55;;
23058;SDS011;30585;51.502;7.218;2023-10-08T09:04:49;7.30;;;3.40;;
23058;SDS011;30585;51.502;7.218;2023-10-08T09:07:20;4.47;;;2.88;;
23058;SDS011;30585;51.502;7.218;2023-10-08T09:09:48;4.03;;;2.67;;
23058;SDS011;30585;51.502;7.218;2023-10-08T09:12:17;4.05;;;2.25;;
23058;SDS011;30585;51.502;7.218;2023-10-08T09:14:47;6.40;;;2.95;;
23058;SDS011;30585;51.502;7.218;2023-10-08T09:17:16;3.75;;;2.45;;
23058;SDS011;30585;51.502;7.218;2023-10-08T09:19:44;4.25;;;2.55;;
23058;SDS011;30585;51.502;7.218;2023-10-08T09:22:12;4.32;;;2.35;;
23058;SDS011;30585;51.502;7.218;2023-10-08T09:24:47;2.63;;;1.70;;
23058;SDS011;30585;51.502;7.218;2023-10-08T09:27:15;4.75;;;2.20;;
23058;SDS011;30585;51.502;7.218;2023-10-08T09:29:46;4.97;;;2.05;;
23058;SDS011;30585;51.502;7.218;2023-10-08T09:32:14;2.10;;;1.35;;
23058;SDS011;30585;51.502;7.218;2023-10-08T09:34:50;2.38;;;1.63;;
23058;SDS011;30585;51.502;7.218;2023-10-08T09:37:19;3.60;;;1.95;;
23058;SDS011;30585;51.502;7.218;2023-10-08T09:39:49;1.80;;;1.40;;
23058;SDS011;30585;51.502;7.218;2023-10-08T09:42:19;2.30;;;1.23;;
23058;SDS011;30585;51.502;7.218;2023-10-08T09:44:49;1.67;;;1.25;;
23058;SDS011;30585;51.502;7.218;2023-10-08T09:47:19;2.08;;;1.05;;
23058;SDS011;30585;51.502;7.218;2023-10-08T09:49:50;1.48;;;0.80;;
23058;SDS011;30585;51.502;7.218;2023-10-08T09:52:24;1.50;;;0.90;;
23058;SDS011;30585;51.502;7.218;2023-10-08T09:55:02;1.40;;;1.08;;
23058;SDS011;30585;51.502;7.218;2023-10-08T09:57:36;2.70;;;1.45;;
23058;SDS011;30585;51.502;7.218;2023-10-08T10:00:07;1.38;;;1.10;;
23058;SDS011;30585;51.502;7.218;2023-10-08T10:02:41;1.10;;;1.00;;
23058;SDS011;30585;51.502;7.218;2023-10-08T10:05:10;1.75;;;0.85;;
23058;SDS011;30585;51.502;7.218;2023-10-08T10:07:40;0.82;;;0.73;;
23058;SDS011;30585;51.502;7.218;2023-10-08T10:13:03;1.80;;;0.60;;
23058;SDS011;30585;51.502;7.218;2023-10-08T10:15:34;2.05;;;0.60;;
23058;SDS011;30585;51.502;7.218;2023-10-08T10:18:08;2.45;;;0.80;;
23058;SDS011;30585;51.502;7.218;2023-10-08T10:20:43;2.05;;;0.63;;
23058;SDS011;30585;51.502;7.218;2023-10-08T10:26:02;3.97;;;0.70;;
23058;SDS011;30585;51.502;7.218;2023-10-08T10:28:32;2.58;;;0.70;;
23058;SDS011;30585;51.502;7.218;2023-10-08T10:31:00;1.95;;;1.27;;
23058;SDS011;30585;51.502;7.218;2023-10-08T10:33:30;0.98;;;0.60;;
23058;SDS011;30585;51.502;7.218;2023-10-08T10:36:00;0.90;;;0.47;;
23058;SDS011;30585;51.502;7.218;2023-10-08T10:38:31;0.30;;;0.30;;
23058;SDS011;30585;51.502;7.218;2023-10-08T10:41:03;0.55;;;0.40;;
23058;SDS011;30585;51.502;7.218;2023-10-08T10:43:36;0.43;;;0.40;;
23058;SDS011;30585;51.502;7.218;2023-10-08T10:46:06;1.20;;;0.35;;
23058;SDS011;30585;51.502;7.218;2023-10-08T10:48:55;1.42;;;0.40;;
23058;SDS011;30585;51.502;7.218;2023-10-08T10:51:45;0.60;;;0.40;;
23058;SDS011;30585;51.502;7.218;2023-10-08T10:54:15;2.55;;;0.35;;
23058;SDS011;30585;51.502;7.218;2023-10-08T10:56:47;2.95;;;0.32;;
23058;SDS011;30585;51.502;7.218;2023-10-08T10:59:31;0.40;;;0.30;;
23058;SDS011;30585;51.502;7.218;2023-10-08T11:02:06;2.10;;;0.68;;
23058;SDS011;30585;51.502;7.218;2023-10-08T11:04:47;4.65;;;0.40;;
23058;SDS011;30585;51.502;7.218;2023-10-08T11:07:15;1.27;;;0.50;;
23058;SDS011;30585;51.502;7.218;2023-10-08T11:09:46;0.35;;;0.30;;
23058;SDS011;30585;51.502;7.218;2023-10-08T11:12:14;0.47;;;0.40;;
23058;SDS011;30585;51.502;7.218;2023-10-08T11:14:50;0.28;;;0.28;;
23058;SDS011;30585;51.502;7.218;2023-10-08T11:17:22;1.08;;;0.35;;
23058;SDS011;30585;51.502;7.218;2023-10-08T11:19:53;0.85;;;0.30;;
23058;SDS011;30585;51.502;7.218;2023-10-08T11:22:20;2.28;;;0.45;;
23058;SDS011;30585;51.502;7.218;2023-10-08T11:24:49;0.32;;;0.32;;
23058;SDS011;30585;51.502;7.218;2023-10-08T11:27:20;0.30;;;0.20;;
23058;SDS011;30585;51.502;7.218;2023-10-08T11:29:57;1.48;;;0.35;;
23058;SDS011;30585;51.502;7.218;2023-10-08T11:32:26;1.00;;;0.20;;
23058;SDS011;30585;51.502;7.218;2023-10-08T11:34:59;0.20;;;0.20;;
23058;SDS011;30585;51.502;7.218;2023-10-08T11:37:44;2.25;;;0.40;;
23058;SDS011;30585;51.502;7.218;2023-10-08T11:40:21;1.48;;;0.40;;
23058;SDS011;30585;51.502;7.218;2023-10-08T11:42:55;1.15;;;0.47;;
23058;SDS011;30585;51.502;7.218;2023-10-08T11:45:26;0.40;;;0.40;;
23058;SDS011;30585;51.502;7.218;2023-10-08T11:47:54;0.70;;;0.45;;
23058;SDS011;30585;51.502;7.218;2023-10-08T11:50:30;2.03;;;0.52;;
23058;SDS011;30585;51.502;7.218;2023-10-08T11:52:58;4.47;;;0.50;;
23058;SDS011;30585;51.502;7.218;2023-10-08T11:55:30;0.80;;;0.40;;
23058;SDS011;30585;51.502;7.218;2023-10-08T11:58:02;0.57;;;0.40;;
23058;SDS011;30585;51.502;7.218;2023-10-08T12:00:38;0.45;;;0.20;;
23058;SDS011;30585;51.502;7.218;2023-10-08T12:03:13;0.40;;;0.20;;
23058;SDS011;30585;51.502;7.218;2023-10-08T12:05:45;0.32;;;0.32;;
23058;SDS011;30585;51.502;7.218;2023-10-08T12:08:16;0.30;;;0.20;;
23058;SDS011;30585;51.502;7.218;2023-10-08T12:10:44;0.60;;;0.55;;
23058;SDS011;30585;51.502;7.218;2023-10-08T12:13:14;1.05;;;0.50;;
23058;SDS011;30585;51.502;7.218;2023-10-08T12:15:46;1.38;;;0.73;;
23058;SDS011;30585;51.502;7.218;2023-10-08T12:18:14;0.43;;;0.40;;
23058;SDS011;30585;51.502;7.218;2023-10-08T12:20:51;0.90;;;0.32;;
23058;SDS011;30585;51.502;7.218;2023-10-08T12:23:20;0.38;;;0.30;;
23058;SDS011;30585;51.502;7.218;2023-10-08T12:25:51;0.38;;;0.28;;
23058;SDS011;30585;51.502;7.218;2023-10-08T12:28:22;0.93;;;0.25;;
23058;SDS011;30585;51.502;7.218;2023-10-08T12:30:52;0.32;;;0.32;;
23058;SDS011;30585;51.502;7.218;2023-10-08T12:33:20;0.47;;;0.30;;
23058;SDS011;30585;51.502;7.218;2023-10-08T12:35:50;0.38;;;0.28;;
23058;SDS011;30585;51.502;7.218;2023-10-08T12:38:19;0.85;;;0.40;;
23058;SDS011;30585;51.502;7.218;2023-10-08T12:40:48;2.90;;;0.40;;
23058;SDS011;30585;51.502;7.218;2023-10-08T12:43:19;0.50;;;0.28;;
23058;SDS011;30585;51.502;7.218;2023-10-08T12:45:47;0.30;;;0.30;;
23058;SDS011;30585;51.502;7.218;2023-10-08T12:48:21;1.35;;;0.40;;
23058;SDS011;30585;51.502;7.218;2023-10-08T12:50:50;0.70;;;0.30;;
23058;SDS011;30585;51.502;7.218;2023-10-08T12:53:23;0.25;;;0.25;;
23058;SDS011;30585;51.502;7.218;2023-10-08T12:56:00;3.63;;;0.50;;
23058;SDS011;30585;51.502;7.218;2023-10-08T12:58:32;1.98;;;0.30;;
23058;SDS011;30585;51.502;7.218;2023-10-08T13:01:07;0.50;;;0.40;;
23058;SDS011;30585;51.502;7.218;2023-10-08T13:03:37;0.80;;;0.47;;
23058;SDS011;30585;51.502;7.218;2023-10-08T13:06:09;0.43;;;0.30;;
23058;SDS011;30585;51.502;7.218;2023-10-08T13:08:41;0.95;;;0.55;;
23058;SDS011;30585;51.502;7.218;2023-10-08T13:11:09;1.75;;;0.45;;
23058;SDS011;30585;51.502;7.218;2023-10-08T13:13:37;1.02;;;0.28;;
23058;SDS011;30585;51.502;7.218;2023-10-08T13:16:05;2.63;;;0.35;;
23058;SDS011;30585;51.502;7.218;2023-10-08T13:18:34;0.98;;;0.20;;
23058;SDS011;30585;51.502;7.218;2023-10-08T13:21:05;0.80;;;0.30;;
23058;SDS011;30585;51.502;7.218;2023-10-08T13:23:34;0.75;;;0.70;;
23058;SDS011;30585;51.502;7.218;2023-10-08T13:26:02;2.38;;;0.47;;
23058;SDS011;30585;51.502;7.218;2023-10-08T13:28:33;1.10;;;0.45;;
23058;SDS011;30585;51.502;7.218;2023-10-08T13:31:01;0.20;;;0.20;;
23058;SDS011;30585;51.502;7.218;2023-10-08T13:33:37;0.57;;;0.30;;
23058;SDS011;30585;51.502;7.218;2023-10-08T13:36:08;1.80;;;1.05;;
23058;SDS011;30585;51.502;7.218;2023-10-08T13:38:45;2.70;;;0.40;;
23058;SDS011;30585;51.502;7.218;2023-10-08T13:41:14;2.08;;;0.40;;
23058;SDS011;30585;51.502;7.218;2023-10-08T13:43:45;2.03;;;0.63;;
23058;SDS011;30585;51.502;7.218;2023-10-08T13:46:14;0.20;;;0.20;;
23058;SDS011;30585;51.502;7.218;2023-10-08T13:48:45;2.35;;;0.43;;
23058;SDS011;30585;51.502;7.218;2023-10-08T13:51:17;1.20;;;0.80;;
23058;SDS011;30585;51.502;7.218;2023-10-08T13:53:52;1.33;;;0.60;;
23058;SDS011;30585;51.502;7.218;2023-10-08T13:56:33;0.60;;;0.40;;
23058;SDS011;30585;51.502;7.218;2023-10-08T13:59:04;1.13;;;0.50;;
23058;SDS011;30585;51.502;7.218;2023-10-08T14:01:39;0.90;;;0.50;;
23058;SDS011;30585;51.502;7.218;2023-10-08T14:04:10;1.00;;;0.60;;
23058;SDS011;30585;51.502;7.218;2023-10-08T14:06:40;0.85;;;0.52;;
23058;SDS011;30585;51.502;7.218;2023-10-08T14:09:14;1.90;;;0.65;;
23058;SDS011;30585;51.502;7.218;2023-10-08T14:11:47;3.25;;;0.57;;
23058;SDS011;30585;51.502;7.218;2023-10-08T14:14:16;1.40;;;0.55;;
23058;SDS011;30585;51.502;7.218;2023-10-08T14:16:46;4.18;;;0.77;;
23058;SDS011;30585;51.502;7.218;2023-10-08T14:19:18;2.95;;;0.50;;
23058;SDS011;30585;51.502;7.218;2023-10-08T14:21:55;1.00;;;0.40;;
23058;SDS011;30585;51.502;7.218;2023-10-08T14:24:29;1.92;;;0.68;;
23058;SDS011;30585;51.502;7.218;2023-10-08T14:27:01;1.27;;;0.70;;
23058;SDS011;30585;51.502;7.218;2023-10-08T14:29:36;1.27;;;0.40;;
23058;SDS011;30585;51.502;7.218;2023-10-08T14:32:07;1.80;;;0.60;;
23058;SDS011;30585;51.502;7.218;2023-10-08T14:34:36;2.17;;;0.52;;
23058;SDS011;30585;51.502;7.218;2023-10-08T14:37:23;0.40;;;0.40;;
23058;SDS011;30585;51.502;7.218;2023-10-08T14:40:08;1.02;;;0.75;;
23058;SDS011;30585;51.502;7.218;2023-10-08T14:42:54;0.98;;;0.70;;
23058;SDS011;30585;51.502;7.218;2023-10-08T14:45:26;0.93;;;0.50;;
23058;SDS011;30585;51.502;7.218;2023-10-08T14:47:57;0.85;;;0.77;;
23058;SDS011;30585;51.502;7.218;2023-10-08T14:50:26;1.75;;;0.63;;
23058;SDS011;30585;51.502;7.218;2023-10-08T14:52:59;1.50;;;0.63;;
23058;SDS011;30585;51.502;7.218;2023-10-08T14:55:28;1.35;;;0.63;;
23058;SDS011;30585;51.502;7.218;2023-10-08T14:57:56;2.05;;;0.50;;
23058;SDS011;30585;51.502;7.218;2023-10-08T15:00:24;0.85;;;0.35;;
23058;SDS011;30585;51.502;7.218;2023-10-08T15:02:53;0.60;;;0.50;;
23058;SDS011;30585;51.502;7.218;2023-10-08T15:05:22;0.70;;;0.70;;
23058;SDS011;30585;51.502;7.218;2023-10-08T15:07:50;0.80;;;0.60;;
23058;SDS011;30585;51.502;7.218;2023-10-08T15:10:20;0.85;;;0.50;;
23058;SDS011;30585;51.502;7.218;2023-10-08T15:12:48;2.30;;;0.40;;
23058;SDS011;30585;51.502;7.218;2023-10-08T15:15:19;1.10;;;0.55;;
23058;SDS011;30585;51.502;7.218;2023-10-08T15:17:51;1.08;;;0.50;;
23058;SDS011;30585;51.502;7.218;2023-10-08T15:20:21;1.70;;;0.85;;
23058;SDS011;30585;51.502;7.218;2023-10-08T15:22:50;2.42;;;0.75;;
23058;SDS011;30585;51.502;7.218;2023-10-08T15:25:19;3.47;;;0.73;;
23058;SDS011;30585;51.502;7.218;2023-10-08T15:27:48;1.40;;;0.82;;
23058;SDS011;30585;51.502;7.218;2023-10-08T15:30:17;2.22;;;0.60;;